createdAt,value
2019-04-10T00:00:07.508Z,56
2019-04-10T00:01:17.457Z,57.5
2019-04-10T00:02:25.972Z,55.6
2019-04-10T00:03:40.717Z,55.7
2019-04-10T00:04:45.373Z,57.5
2019-04-10T00:05:53.509Z,57.5
2019-04-10T00:07:15.589Z,57.4
2019-04-10T00:08:12.409Z,58.5
2019-04-10T00:09:21.227Z,57.4
2019-04-10T00:10:30.446Z,57.5
2019-04-10T00:11:39.687Z,57.4
2019-04-10T00:13:58.784Z,59
2019-04-10T00:15:07.454Z,58.6
2019-04-10T00:16:16.588Z,58.3
2019-04-10T00:17:25.809Z,59.1
2019-04-10T00:18:35.049Z,60.3
2019-04-10T00:19:45.646Z,60.8
2019-04-10T00:20:53.596Z,62
2019-04-10T00:22:04.185Z,63.3
2019-04-10T00:23:13.242Z,63.4
2019-04-10T00:24:22.036Z,63.3
2019-04-10T00:25:30.398Z,63.8
2019-04-10T00:26:39.680Z,65.1
2019-04-10T00:27:48.843Z,65.6
2019-04-10T00:28:58.221Z,66.8
2019-04-10T00:30:07.335Z,67.4
2019-04-10T00:31:16.614Z,66.5
2019-04-10T00:32:25.885Z,66.8
2019-04-10T00:33:35.118Z,66.3
2019-04-10T00:34:44.197Z,67.2
2019-04-10T00:35:54.093Z,67.7
2019-04-10T00:37:03.867Z,68.6
2019-04-10T00:38:11.935Z,68.4
2019-04-10T00:39:22.021Z,68.6
2019-04-10T00:40:31.235Z,69.3
2019-04-10T00:41:40.744Z,69.3
2019-04-10T00:42:49.600Z,70.6
2019-04-10T00:43:57.908Z,69.3
2019-04-10T00:45:07.429Z,69.7
2019-04-10T00:46:16.335Z,71.4
2019-04-10T00:47:26.834Z,71.7
2019-04-10T00:48:36.337Z,71.6
2019-04-10T00:49:46.215Z,73.1
2019-04-10T00:52:03.964Z,73.3
2019-04-10T00:53:12.862Z,74.3
2019-04-10T00:54:22.051Z,73.9
2019-04-10T00:55:32.237Z,74.1
2019-04-10T00:56:41.805Z,74.6
2019-04-10T00:57:49.922Z,75.4
2019-04-10T00:58:59.688Z,75
2019-04-10T01:00:08.638Z,76.2
2019-04-10T01:01:17.266Z,76.6
2019-04-10T01:02:26.981Z,77.7
2019-04-10T01:03:35.928Z,77.4
2019-04-10T01:04:44.961Z,77.7
2019-04-10T01:05:54.218Z,78.1
2019-04-10T01:07:04.374Z,80.1
2019-04-10T01:08:12.753Z,80.3
2019-04-10T01:09:23.740Z,80.9
2019-04-10T01:10:30.930Z,80.8
2019-04-10T01:11:41.456Z,80.9
2019-04-10T01:12:49.334Z,80.8
2019-04-10T01:13:59.201Z,81.8
2019-04-10T01:15:07.716Z,82
2019-04-10T01:16:18.037Z,82
2019-04-10T01:17:26.405Z,83.4
2019-04-10T01:18:35.437Z,82.5
2019-04-10T01:19:44.540Z,83.8
2019-04-10T01:20:53.755Z,83.5
2019-04-10T01:22:03.179Z,83
2019-04-10T01:23:12.151Z,84.3
2019-04-10T01:24:21.751Z,84.8
2019-04-10T01:25:30.537Z,83.8
2019-04-10T01:26:39.771Z,83.7
2019-04-10T01:27:50.091Z,84.6
2019-04-10T01:28:58.206Z,85.7
2019-04-10T01:30:08.786Z,86.6
2019-04-10T01:31:17.211Z,85.2
2019-04-10T01:32:25.864Z,86.5
2019-04-10T01:33:35.038Z,85.1
2019-04-10T01:34:44.128Z,86.4
2019-04-10T01:35:54.440Z,86.4
2019-04-10T01:38:11.769Z,90.5
2019-04-10T01:39:21.979Z,89.4
2019-04-10T01:40:30.987Z,88.5
2019-04-10T01:41:39.918Z,88.2
2019-04-10T01:43:09.615Z,88.5
2019-04-10T01:43:57.708Z,89
2019-04-10T01:45:07.187Z,89.9
2019-04-10T01:46:16.094Z,90.8
2019-04-10T01:47:25.296Z,90.9
2019-04-10T01:48:34.605Z,90.6
2019-04-10T01:49:44.031Z,90.8
2019-04-10T01:50:53.021Z,90.9
2019-04-10T01:52:02.065Z,90.8
2019-04-10T01:53:11.379Z,90.4
2019-04-10T01:54:20.609Z,90.9
2019-04-10T01:55:32.786Z,90.5
2019-04-10T01:56:39.793Z,91.5
2019-04-10T01:57:49.131Z,90.8
2019-04-10T01:58:57.401Z,91
2019-04-10T02:00:06.898Z,91.6
2019-04-10T02:01:16.606Z,91.7
2019-04-10T02:02:25.426Z,91.6
2019-04-10T02:03:34.175Z,91.6
2019-04-10T02:04:43.905Z,91
2019-04-10T02:05:52.770Z,90.3
2019-04-10T02:07:02.281Z,91
2019-04-10T02:08:15.995Z,90.9
2019-04-10T02:09:19.997Z,90.4
2019-04-10T02:10:29.176Z,91.4
2019-04-10T02:11:38.367Z,90.8
2019-04-10T02:12:47.591Z,91
2019-04-10T02:13:57.976Z,87.6
2019-04-10T02:15:10.324Z,88.1
2019-04-10T02:16:15.142Z,89.6
2019-04-10T02:17:24.461Z,89.7
2019-04-10T02:18:33.633Z,87.6
2019-04-10T02:19:42.756Z,87.1
2019-04-10T02:20:51.981Z,86.8
2019-04-10T02:22:02.395Z,88.2
2019-04-10T02:23:10.303Z,88.3
2019-04-10T02:24:19.514Z,88.3
2019-04-10T02:25:28.715Z,89.8
2019-04-10T02:26:38.174Z,90.8
2019-04-10T02:27:47.490Z,90.5
2019-04-10T02:28:57.328Z,90.8
2019-04-10T02:30:10.231Z,90.8
2019-04-10T02:32:24.292Z,91.5
2019-04-10T02:33:33.746Z,91.8
2019-04-10T02:34:45.650Z,93.2
2019-04-10T02:35:52.694Z,93.3
2019-04-10T02:37:02.499Z,93.3
2019-04-10T02:38:38.154Z,94.5
2019-04-10T02:39:35.902Z,94.4
2019-04-10T02:40:28.982Z,94.4
2019-04-10T02:41:38.782Z,95
2019-04-10T02:42:47.857Z,94.5
2019-04-10T02:43:55.813Z,95.4
2019-04-10T02:45:06.179Z,96
2019-04-10T02:46:15.662Z,95.6
2019-04-10T02:47:23.322Z,95.2
2019-04-10T02:48:34.016Z,95
2019-04-10T02:49:42.624Z,94.7
2019-04-10T02:50:51.442Z,94.5
2019-04-10T02:52:00.071Z,95.3
2019-04-10T02:53:11.019Z,95
2019-04-10T02:54:19.571Z,95.3
2019-04-10T02:55:29.266Z,95.2
2019-04-10T02:56:40.573Z,96
2019-04-10T02:57:47.370Z,96
2019-04-10T02:58:57.141Z,96.4
2019-04-10T03:00:05.730Z,95.8
2019-04-10T03:01:15.773Z,96
2019-04-10T03:02:24.424Z,96.3
2019-04-10T03:03:35.868Z,97.1
2019-04-10T03:04:42.634Z,95.8
2019-04-10T03:05:51.463Z,95.4
2019-04-10T03:07:03.796Z,95.3
2019-04-10T03:08:13.135Z,95.8
2019-04-10T03:09:49.096Z,95.7
2019-04-10T03:10:43.992Z,95.5
2019-04-10T03:11:37.324Z,95.8
2019-04-10T03:12:48.946Z,95.5
2019-04-10T03:13:56.803Z,96.2
2019-04-10T03:15:09.664Z,95.7
2019-04-10T03:16:16.032Z,95.1
2019-04-10T03:17:24.279Z,95.2
2019-04-10T03:18:33.478Z,94.3
2019-04-10T03:19:43.540Z,93.6
2019-04-10T03:20:51.940Z,93.5
2019-04-10T03:22:01.958Z,92.7
2019-04-10T03:23:10.209Z,92.3
2019-04-10T03:24:19.443Z,93
2019-04-10T03:25:28.972Z,90.9
2019-04-10T03:26:37.826Z,90.9
2019-04-10T03:27:46.986Z,90.4
2019-04-10T03:28:56.181Z,90
2019-04-10T03:30:10.057Z,89.3
2019-04-10T03:31:16.055Z,88.7
2019-04-10T03:32:34.432Z,90
2019-04-10T03:33:39.587Z,88.4
2019-04-10T03:34:48.226Z,88.6
2019-04-10T03:35:52.382Z,90.3
2019-04-10T03:37:02.958Z,88.8
2019-04-10T03:38:12.036Z,89.9
2019-04-10T03:39:20.085Z,89.1
2019-04-10T03:40:29.330Z,89.6
2019-04-10T03:41:38.492Z,88.3
2019-04-10T03:42:47.536Z,87.9
2019-04-10T03:43:56.743Z,88.4
2019-04-10T03:45:07.200Z,88.5
2019-04-10T03:46:15.214Z,87.8
2019-04-10T03:47:25.202Z,87.6
2019-04-10T03:48:33.905Z,88.6
2019-04-10T03:49:42.667Z,89.2
2019-04-10T03:50:52.273Z,89.9
2019-04-10T03:52:01.112Z,89.6
2019-04-10T03:53:11.490Z,90
2019-04-10T03:54:20.849Z,90.6
2019-04-10T03:55:29.921Z,90.3
2019-04-10T03:56:40.195Z,90.5
2019-04-10T03:57:49.182Z,89.8
2019-04-10T03:58:57.999Z,90.1
2019-04-10T04:00:06.835Z,90.6
2019-04-10T04:01:16.617Z,90.5
2019-04-10T04:02:25.213Z,90.9
2019-04-10T04:03:35.107Z,90.9
2019-04-10T04:04:43.949Z,90.9
2019-04-10T04:05:53.199Z,91.5
2019-04-10T04:07:01.786Z,92.2
2019-04-10T04:08:11.045Z,93.1
2019-04-10T04:09:20.312Z,93.4
2019-04-10T04:10:29.361Z,93.4
2019-04-10T04:11:38.578Z,93.4
2019-04-10T04:12:47.805Z,93.4
2019-04-10T04:13:57.777Z,92.7
2019-04-10T04:15:06.239Z,92.6
2019-04-10T04:16:15.491Z,92.3
2019-04-10T04:17:24.528Z,92.1
2019-04-10T04:18:33.772Z,91.8
2019-04-10T04:19:43.206Z,92
2019-04-10T04:20:53.071Z,91.1
2019-04-10T04:22:01.310Z,91.6
2019-04-10T04:23:11.682Z,91.6
2019-04-10T04:24:23.853Z,90.6
2019-04-10T04:25:28.895Z,91
2019-04-10T04:26:39.400Z,91.3
2019-04-10T04:27:47.325Z,90.9
2019-04-10T04:28:56.505Z,92.3
2019-04-10T04:30:06.451Z,91.9
2019-04-10T04:31:16.093Z,91.4
2019-04-10T04:32:24.104Z,91.6
2019-04-10T04:33:34.167Z,91.3
2019-04-10T04:34:43.370Z,91.4
2019-04-10T04:35:51.757Z,90.6
2019-04-10T04:37:01.161Z,90
2019-04-10T04:38:10.079Z,90.2
2019-04-10T04:39:27.246Z,89.3
2019-04-10T04:40:28.478Z,88.2
2019-04-10T04:41:38.077Z,88.9
2019-04-10T04:42:47.201Z,90.1
2019-04-10T04:43:56.040Z,89.9
2019-04-10T04:45:05.333Z,89.7
2019-04-10T04:46:14.435Z,89.7
2019-04-10T04:47:24.495Z,90.4
2019-04-10T04:48:32.927Z,90.7
2019-04-10T04:49:42.168Z,91
2019-04-10T04:50:52.356Z,91
2019-04-10T04:52:00.506Z,91.4
2019-04-10T04:53:10.827Z,91.8
2019-04-10T04:54:19.281Z,91.8
2019-04-10T04:55:29.056Z,91.9
2019-04-10T04:56:37.292Z,91.8
2019-04-10T04:57:47.215Z,91.9
2019-04-10T04:58:56.021Z,92.1
2019-04-10T05:00:07.454Z,91.9
2019-04-10T05:01:14.772Z,91.8
2019-04-10T05:02:23.218Z,91.6
2019-04-10T05:03:33.572Z,91.9
2019-04-10T05:04:41.776Z,91.6
2019-04-10T05:05:52.020Z,91.2
2019-04-10T05:07:00.062Z,90.1
2019-04-10T05:08:10.100Z,88.7
2019-04-10T05:09:35.431Z,87.1
2019-04-10T05:10:27.743Z,86.8
2019-04-10T05:11:36.830Z,84.9
2019-04-10T05:12:46.113Z,84.5
2019-04-10T05:13:57.088Z,83.1
2019-04-10T05:15:04.542Z,81.8
2019-04-10T05:16:14.515Z,79.9
2019-04-10T05:17:22.835Z,78.3
2019-04-10T05:18:32.045Z,76.5
2019-04-10T05:19:42.407Z,76.7
2019-04-10T05:20:51.125Z,76.6
2019-04-10T05:21:59.670Z,77.7
2019-04-10T05:23:10.328Z,78.6
2019-04-10T05:24:18.180Z,83.1
2019-04-10T05:25:27.394Z,73.8
2019-04-10T05:26:36.698Z,75.6
2019-04-10T05:27:46.960Z,75.7
2019-04-10T05:28:55.031Z,75.8
2019-04-10T05:30:04.219Z,76.4
2019-04-10T05:31:13.399Z,60.6
2019-04-10T05:32:23.504Z,66.9
2019-04-10T05:33:31.853Z,64.6
2019-04-10T05:34:41.101Z,65.8
2019-04-10T05:35:50.934Z,64.8
2019-04-10T05:36:59.498Z,52.4
2019-04-10T05:38:08.821Z,56.8
2019-04-10T05:39:19.132Z,55
2019-04-10T05:40:28.110Z,53.7
2019-04-10T05:41:36.482Z,53.2
2019-04-10T05:42:45.653Z,45.3
2019-04-10T05:43:55.130Z,47.8
2019-04-10T05:45:05.056Z,49.2
2019-04-10T05:46:14.515Z,50.6
2019-04-10T05:47:23.657Z,48.6
2019-04-10T05:48:33.545Z,53
2019-04-10T05:49:42.176Z,47.2
2019-04-10T05:51:01.187Z,52.3
2019-04-10T05:52:00.586Z,52.4
2019-04-10T05:53:09.921Z,45.3
2019-04-10T05:54:19.302Z,43.4
2019-04-10T05:55:28.990Z,43.4
2019-04-10T05:56:38.512Z,41
2019-04-10T05:57:46.977Z,41.1
2019-04-10T05:58:56.726Z,45
2019-04-10T06:00:05.414Z,47.7
2019-04-10T06:01:15.722Z,42
2019-04-10T06:02:23.757Z,42
2019-04-10T06:03:32.990Z,43
2019-04-10T06:04:43.375Z,44.8
2019-04-10T06:05:51.496Z,48
2019-04-10T06:07:01.072Z,51.1
2019-04-10T06:08:10.216Z,54.7
2019-04-10T06:09:20.636Z,58
2019-04-10T06:10:28.414Z,58.1
2019-04-10T06:11:37.697Z,58.2
2019-04-10T06:12:46.927Z,57.6
2019-04-10T06:13:56.995Z,54.2
2019-04-10T06:16:15.442Z,37.7
2019-04-10T06:17:24.750Z,36.6
2019-04-10T06:18:33.423Z,37.8
2019-04-10T06:19:42.764Z,37.6
2019-04-10T06:20:51.759Z,36.6
2019-04-10T06:22:01.201Z,35.5
2019-04-10T06:23:11.452Z,35.8
2019-04-10T06:24:20.481Z,34.8
2019-04-10T06:25:31.729Z,33.9
2019-04-10T06:26:39.561Z,33.4
2019-04-10T06:27:48.478Z,32
2019-04-10T06:28:56.954Z,30.2
2019-04-10T06:31:15.266Z,27.6
2019-04-10T06:32:25.603Z,28.4
2019-04-10T06:33:34.147Z,26.1
2019-04-10T06:34:43.124Z,29.1
2019-04-10T06:35:53.147Z,30.4
2019-04-10T06:37:02.015Z,30
2019-04-10T06:38:11.173Z,30
2019-04-10T06:39:20.601Z,29.3
2019-04-10T06:40:30.698Z,29.7
2019-04-10T06:41:39.141Z,29.9
2019-04-10T06:42:54.644Z,30
2019-04-10T06:43:57.585Z,30.2
2019-04-10T06:45:07.349Z,28.8
2019-04-10T06:46:16.827Z,29.1
2019-04-10T06:47:26.575Z,29.7
2019-04-10T06:48:34.799Z,30
2019-04-10T06:49:44.138Z,29.8
2019-04-10T06:50:53.579Z,29.9
2019-04-10T06:52:02.768Z,30.2
2019-04-10T06:53:15.817Z,30.6
2019-04-10T06:54:21.371Z,30
2019-04-10T06:55:30.663Z,29.6
2019-04-10T06:56:41.113Z,29.9
2019-04-10T06:57:58.013Z,29.7
2019-04-10T06:58:58.596Z,28.9
2019-04-10T07:00:14.558Z,29.9
2019-04-10T07:01:23.465Z,29.8
2019-04-10T07:02:31.325Z,30.3
2019-04-10T07:03:59.009Z,30.2
2019-04-10T07:04:54.732Z,29.6
2019-04-10T07:06:13.981Z,29.9
2019-04-10T07:07:12.873Z,29.5
2019-04-10T07:08:21.228Z,28.7
2019-04-10T07:09:26.842Z,27.2
2019-04-10T07:10:51.922Z,26.8
2019-04-10T07:11:41.119Z,29.5
2019-04-10T07:12:51.383Z,29.4
2019-04-10T07:13:59.936Z,29.5
2019-04-10T07:15:08.960Z,29.7
2019-04-10T07:16:18.367Z,29.7
2019-04-10T07:17:27.558Z,29.9
2019-04-10T07:18:39.481Z,29.3
2019-04-10T07:19:46.211Z,29.4
2019-04-10T07:21:01.370Z,30
2019-04-10T07:22:12.855Z,28.8
2019-04-10T07:23:23.718Z,26.7
2019-04-10T07:24:23.483Z,28.4
2019-04-10T07:25:32.814Z,28.4
2019-04-10T07:26:47.410Z,28.4
2019-04-10T07:27:52.350Z,27.4
2019-04-10T07:29:00.779Z,27.9
2019-04-10T07:30:10.074Z,28.3
2019-04-10T07:31:19.498Z,27.7
2019-04-10T07:32:29.975Z,28.3
2019-04-10T07:34:47.356Z,27.2
2019-04-10T07:35:56.791Z,27
2019-04-10T07:37:06.259Z,25.9
2019-04-10T07:38:16.043Z,25.4
2019-04-10T07:39:30.899Z,25.3
2019-04-10T07:40:36.957Z,23.1
2019-04-10T07:41:43.328Z,23.2
2019-04-10T07:42:52.674Z,24.9
2019-04-10T07:44:02.086Z,23.8
2019-04-10T07:45:11.354Z,24.9
2019-04-10T07:46:21.893Z,24.8
2019-04-10T07:47:30.022Z,24.5
2019-04-10T07:48:39.971Z,23.5
2019-04-10T07:49:48.769Z,24.3
2019-04-10T07:50:58.082Z,23.8
2019-04-10T07:52:08.400Z,25.7
2019-04-10T07:53:17.010Z,24.5
2019-04-10T07:54:26.818Z,23.9
2019-04-10T07:55:35.677Z,24.2
2019-04-10T07:56:44.809Z,24.9
2019-04-10T07:57:55.343Z,26.1
2019-04-10T07:59:04.718Z,25.4
2019-04-10T08:00:13.037Z,25.2
2019-04-10T08:01:22.267Z,25
2019-04-10T08:02:31.867Z,25.1
2019-04-10T08:03:41.716Z,25.3
2019-04-10T08:04:51.701Z,25.9
2019-04-10T08:06:00.501Z,24.9
2019-04-10T08:07:09.584Z,23.2
2019-04-10T08:08:19.479Z,24.6
2019-04-10T08:09:27.828Z,25.1
2019-04-10T08:10:37.252Z,24
2019-04-10T08:11:46.908Z,25.3
2019-04-10T08:12:56.108Z,23.6
2019-04-10T08:14:08.802Z,22.2
2019-04-10T08:15:14.748Z,20.4
2019-04-10T08:16:25.493Z,21.1
2019-04-10T08:17:34.631Z,21.2
2019-04-10T08:18:43.526Z,22.5
2019-04-10T08:19:53.127Z,22
2019-04-10T08:21:02.955Z,20.9
2019-04-10T08:22:11.016Z,22
2019-04-10T08:23:21.863Z,22.4
2019-04-10T08:24:29.759Z,23
2019-04-10T08:25:39.257Z,22
2019-04-10T08:26:49.328Z,21.6
2019-04-10T08:27:58.637Z,19.6
2019-04-10T08:29:07.857Z,19.2
2019-04-10T08:30:17.554Z,19.2
2019-04-10T08:31:26.011Z,20
2019-04-10T08:32:56.933Z,19.4
2019-04-10T08:33:44.746Z,20.8
2019-04-10T08:34:54.147Z,20.2
2019-04-10T08:36:03.796Z,19.7
2019-04-10T08:37:12.929Z,19.7
2019-04-10T08:38:22.246Z,20.1
2019-04-10T08:39:42.858Z,18.8
2019-04-10T08:40:41.078Z,17.3
2019-04-10T08:41:50.483Z,16.8
2019-04-10T08:43:00.033Z,17.5
2019-04-10T08:44:09.254Z,17.5
2019-04-10T08:45:19.038Z,16.9
2019-04-10T08:46:28.278Z,16.4
2019-04-10T08:47:37.614Z,16.5
2019-04-10T08:48:47.751Z,16.3
2019-04-10T08:49:57.262Z,16.4
2019-04-10T08:51:06.770Z,17.1
2019-04-10T08:52:15.134Z,15.5
2019-04-10T08:53:24.580Z,14.5
2019-04-10T08:54:34.396Z,13
2019-04-10T08:55:43.382Z,12.2
2019-04-10T08:56:52.868Z,11.9
2019-04-10T08:58:02.916Z,13.4
2019-04-10T08:59:11.970Z,15.6
2019-04-10T09:00:21.210Z,15.2
2019-04-10T09:01:31.585Z,14
2019-04-10T09:02:40.252Z,11.2
2019-04-10T09:03:50.676Z,13.3
2019-04-10T09:04:59.546Z,14.2
2019-04-10T09:06:09.328Z,15.4
2019-04-10T09:07:20.073Z,15
2019-04-10T09:08:28.865Z,13.7
2019-04-10T09:09:37.482Z,13.3
2019-04-10T09:10:47.008Z,14
2019-04-10T09:11:56.174Z,14.7
2019-04-10T09:13:06.374Z,15
2019-04-10T09:14:15.192Z,13.9
2019-04-10T09:15:25.869Z,13
2019-04-10T09:16:34.424Z,13
2019-04-10T09:17:43.901Z,13.8
2019-04-10T09:18:53.897Z,14.4
2019-04-10T09:20:02.825Z,14.2
2019-04-10T09:22:22.643Z,11.3
2019-04-10T09:23:47.179Z,9.8
2019-04-10T09:24:41.066Z,9.5
2019-04-10T09:25:51.350Z,12.8
2019-04-10T09:27:00.632Z,11.4
2019-04-10T09:28:10.666Z,10.8
2019-04-10T09:29:24.185Z,10
2019-04-10T09:30:29.031Z,7.8
2019-04-10T09:31:40.064Z,6
2019-04-10T09:32:48.115Z,5.7
2019-04-10T09:33:59.223Z,4.4
2019-04-10T09:35:07.280Z,4.7
2019-04-10T09:36:18.766Z,7.1
2019-04-10T09:37:26.541Z,10.8
2019-04-10T09:38:37.004Z,12.2
2019-04-10T09:39:45.845Z,10.5
2019-04-10T09:40:55.356Z,9.6
2019-04-10T09:42:04.915Z,9.1
2019-04-10T09:43:15.787Z,9.2
2019-04-10T09:44:25.726Z,8.7
2019-04-10T09:45:33.655Z,9.2
2019-04-10T09:46:43.167Z,7.4
2019-04-10T09:47:52.754Z,6.3
2019-04-10T09:49:02.665Z,4.4
2019-04-10T09:50:11.953Z,3.8
2019-04-10T09:51:21.684Z,4
2019-04-10T09:52:32.131Z,2.5
2019-04-10T09:53:41.332Z,1.1
2019-04-10T09:54:51.111Z,1
2019-04-10T09:56:01.055Z,6.2
2019-04-10T09:57:11.122Z,10
2019-04-10T09:58:19.967Z,9.2
2019-04-10T09:59:36.761Z,8
2019-04-10T10:00:38.510Z,8.6
2019-04-10T10:01:48.634Z,9.4
2019-04-10T10:02:57.771Z,9.1
2019-04-10T10:04:07.208Z,8.8
2019-04-10T10:05:18.232Z,7.8
2019-04-10T10:06:35.145Z,7
2019-04-10T10:07:36.929Z,5.2
2019-04-10T10:08:45.477Z,3.7
2019-04-10T10:10:00.719Z,3.3
2019-04-10T10:11:06.150Z,1.9
2019-04-10T10:12:14.253Z,1
2019-04-10T10:14:33.531Z,1
2019-04-10T10:15:43.275Z,1
2019-04-10T10:16:52.714Z,1.9
2019-04-10T10:18:03.441Z,2
2019-04-10T10:19:12.101Z,3
2019-04-10T10:20:21.865Z,5.3
2019-04-10T10:21:31.069Z,4.8
2019-04-10T10:22:41.265Z,4.6
2019-04-10T10:23:50.349Z,5.9
2019-04-10T10:24:59.839Z,4.7
2019-04-10T10:26:10.079Z,5
2019-04-10T10:27:20.061Z,6
2019-04-10T10:28:29.333Z,6.6
2019-04-10T10:29:38.104Z,4.9
2019-04-10T10:30:47.695Z,9.2
2019-04-10T10:31:57.245Z,8.9
2019-04-10T10:33:07.855Z,9.2
2019-04-10T10:34:16.471Z,8.3
2019-04-10T10:35:27.337Z,6.6
2019-04-10T10:36:43.294Z,4.2
2019-04-10T10:37:44.889Z,1.6
2019-04-10T10:39:11.081Z,2.7
2019-04-10T10:40:03.939Z,2.4
2019-04-10T10:41:13.474Z,3
2019-04-10T10:42:23.497Z,4.1
2019-04-10T10:43:32.714Z,4.7
2019-04-10T10:44:42.573Z,7.1
2019-04-10T10:45:53.494Z,8.1
2019-04-10T10:47:02.148Z,9.2
2019-04-10T10:48:14.183Z,8.6
2019-04-10T10:49:20.339Z,8.8
2019-04-10T10:50:31.174Z,7.8
2019-04-10T10:51:39.569Z,6.4
2019-04-10T10:52:50.145Z,4.2
2019-04-10T10:54:02.626Z,2.5
2019-04-10T10:56:18.291Z,4.8
2019-04-10T10:57:27.169Z,3.4
2019-04-10T10:58:37.640Z,3.9
2019-04-10T10:59:46.230Z,3
2019-04-10T11:00:57.800Z,2
2019-04-10T11:02:06.513Z,2.9
2019-04-10T11:03:16.262Z,3.8
2019-04-10T11:04:25.928Z,7.5
2019-04-10T11:05:35.250Z,8.6
2019-04-10T11:06:59.936Z,7.7
2019-04-10T11:07:55.949Z,6.6
2019-04-10T11:09:04.163Z,5.4
2019-04-10T11:10:14.808Z,3
2019-04-10T11:11:24.179Z,1.2
2019-04-10T11:12:34.221Z,1
2019-04-10T11:13:43.271Z,1.9
2019-04-10T11:14:52.418Z,1.6
2019-04-10T11:16:06.082Z,1
2019-04-10T11:17:12.027Z,1
2019-04-10T11:18:20.594Z,1
2019-04-10T11:19:31.276Z,1
2019-04-10T11:20:39.672Z,1
2019-04-10T11:21:50.807Z,1
2019-04-10T11:23:01.478Z,5.4
2019-04-10T11:24:09.286Z,6.3
2019-04-10T11:25:18.058Z,5.3
2019-04-10T11:26:27.721Z,6.8
2019-04-10T11:27:37.106Z,5.5
2019-04-10T11:28:48.600Z,3.2
2019-04-10T11:29:57.668Z,1.3
2019-04-10T11:31:07.257Z,1.6
2019-04-10T11:32:15.219Z,1.6
2019-04-10T11:33:26.062Z,2.9
2019-04-10T11:34:35.725Z,4.5
2019-04-10T11:35:44.017Z,2.5
2019-04-10T11:37:24.020Z,4.1
2019-04-10T11:39:39.965Z,3.6
2019-04-10T11:40:24.080Z,5.3
2019-04-10T11:41:33.484Z,5.4
2019-04-10T11:42:43.314Z,4.6
2019-04-10T11:43:55.022Z,4.2
2019-04-10T11:45:01.610Z,5.1
2019-04-10T11:46:12.947Z,3.2
2019-04-10T11:47:24.523Z,1.6
2019-04-10T11:48:30.121Z,1
2019-04-10T11:52:01.332Z,4.6
2019-04-10T11:53:10.153Z,4.7
2019-04-10T12:00:10.690Z,8.5
2019-04-10T12:01:13.204Z,6.5
2019-04-10T12:03:36.458Z,2.7
2019-04-10T12:04:54.734Z,2.9
2019-04-10T12:07:02.162Z,1.7
2019-04-10T12:11:39.346Z,2.2
2019-04-10T12:12:48.500Z,2.9
2019-04-10T12:13:59.009Z,3.2
2019-04-10T12:15:08.093Z,3.1
2019-04-10T12:16:17.261Z,2.8
2019-04-10T12:17:27.779Z,3.4
2019-04-10T12:18:36.622Z,2.6
2019-04-10T12:19:46.773Z,1.3
2019-04-10T12:20:55.721Z,1
2019-04-10T12:22:05.495Z,1.9
2019-04-10T12:23:14.719Z,1
2019-04-10T12:24:24.091Z,1
2019-04-10T12:25:34.803Z,1
2019-04-10T12:26:44.348Z,1
2019-04-10T12:29:02.618Z,1.4
2019-04-10T12:30:13.264Z,1
2019-04-10T12:31:22.212Z,1
2019-04-10T12:32:31.272Z,1
2019-04-10T12:33:40.791Z,1.4
2019-04-10T12:34:50.908Z,2.1
2019-04-10T12:36:00.463Z,2.2
2019-04-10T12:37:09.669Z,2.8
2019-04-10T12:38:19.413Z,4.8
2019-04-10T12:39:28.600Z,7
2019-04-10T12:40:40.595Z,6.6
2019-04-10T12:41:47.893Z,7.1
2019-04-10T12:42:57.161Z,6.3
2019-04-10T12:44:07.554Z,5.2
2019-04-10T12:45:16.162Z,5.8
2019-04-10T12:46:26.856Z,5.5
2019-04-10T12:47:35.260Z,5.3
2019-04-10T12:48:45.274Z,4.5
2019-04-10T12:49:56.932Z,3.4
2019-04-10T12:51:05.853Z,5.8
2019-04-10T12:53:24.862Z,5.8
2019-04-10T12:54:35.545Z,5.2
2019-04-10T12:55:43.867Z,4.5
2019-04-10T12:56:54.797Z,3.6
2019-04-10T12:58:13.390Z,3
2019-04-10T13:00:21.769Z,1
2019-04-10T13:01:31.519Z,1
2019-04-10T13:02:41.029Z,1
2019-04-10T13:03:51.622Z,1
2019-04-10T13:05:00.937Z,4.1
2019-04-10T13:06:09.645Z,5
2019-04-10T13:07:19.240Z,6.2
2019-04-10T13:08:55.622Z,5.5
2019-04-10T13:09:38.083Z,4.8
2019-04-10T13:10:47.720Z,6.4
2019-04-10T13:11:57.141Z,5.8
2019-04-10T13:13:06.865Z,5.1
2019-04-10T13:15:25.689Z,4.3
2019-04-10T13:16:36.287Z,3.1
2019-04-10T13:17:44.872Z,4.2
2019-04-10T13:18:54.546Z,5.6
2019-04-10T13:20:03.706Z,4.1
2019-04-10T13:21:13.312Z,4.1
2019-04-10T13:22:25.392Z,4.2
2019-04-10T13:23:33.161Z,5.1
2019-04-10T13:24:42.110Z,4.3
2019-04-10T13:26:02.849Z,5.7
2019-04-10T13:28:11.626Z,5.3
2019-04-10T13:29:21.225Z,4.1
2019-04-10T13:30:48.767Z,2
2019-04-10T13:31:39.126Z,2.4
2019-04-10T13:32:48.652Z,4.3
2019-04-10T13:33:58.185Z,3.6
2019-04-10T13:35:08.190Z,2.2
2019-04-10T13:36:17.664Z,1.1
2019-04-10T13:37:28.497Z,1
2019-04-10T13:38:38.256Z,1.5
2019-04-10T13:39:46.887Z,2.1
2019-04-10T13:40:56.449Z,3.8
2019-04-10T13:42:05.277Z,4.9
2019-04-10T13:43:16.033Z,5.3
2019-04-10T13:44:24.547Z,4.9
2019-04-10T13:45:33.751Z,4.2
2019-04-10T13:46:43.245Z,3
2019-04-10T13:47:52.759Z,2.6
2019-04-10T13:49:02.271Z,2.7
2019-04-10T13:50:12.770Z,2.8
2019-04-10T13:51:21.424Z,4.8
2019-04-10T13:52:30.724Z,6.4
2019-04-10T13:53:40.253Z,6.4
2019-04-10T13:54:50.669Z,8.9
2019-04-10T13:55:59.138Z,8.7
2019-04-10T13:57:09.826Z,9
2019-04-10T13:58:19.026Z,8.9
2019-04-10T13:59:27.503Z,8.9
2019-04-10T14:00:40.627Z,8.9
2019-04-10T14:01:46.382Z,8.8
2019-04-10T14:02:56.387Z,9.2
2019-04-10T14:04:05.614Z,8.9
2019-04-10T14:05:15.679Z,8.7
2019-04-10T14:06:25.229Z,8.7
2019-04-10T14:07:33.947Z,8.7
2019-04-10T14:09:14.874Z,9
2019-04-10T14:09:52.730Z,8.1
2019-04-10T14:11:02.735Z,8.1
2019-04-10T14:12:13.017Z,7.5
2019-04-10T14:13:22.048Z,7.5
2019-04-10T14:14:31.030Z,7.7
2019-04-10T14:15:40.502Z,8.6
2019-04-10T14:16:49.889Z,6.7
2019-04-10T14:17:59.890Z,7.9
2019-04-10T14:19:09.676Z,7.5
2019-04-10T14:20:20.614Z,7.8
2019-04-10T14:21:27.670Z,8.9
2019-04-10T14:22:38.054Z,9.3
2019-04-10T14:23:47.306Z,8.6
2019-04-10T14:24:56.213Z,10.2
2019-04-10T14:26:06.574Z,10.5
2019-04-10T14:27:16.272Z,10.2
2019-04-10T14:28:24.988Z,10.1
2019-04-10T14:29:34.481Z,10.5
2019-04-10T14:30:45.444Z,10.7
2019-04-10T14:31:54.278Z,11
2019-04-10T14:33:05.139Z,10.8
2019-04-10T14:34:14.551Z,11.3
2019-04-10T14:36:32.146Z,11.9
2019-04-10T14:37:41.764Z,12.9
2019-04-10T14:38:51.641Z,12.7
2019-04-10T14:40:00.285Z,13
2019-04-10T14:41:09.721Z,13.1
2019-04-10T14:42:19.221Z,12.5
2019-04-10T14:43:28.506Z,12.4
2019-04-10T14:44:38.945Z,12.7
2019-04-10T14:45:48.145Z,12.5
2019-04-10T14:46:56.624Z,12.5
2019-04-10T14:48:06.046Z,12.3
2019-04-10T14:49:15.365Z,11.7
2019-04-10T14:50:26.162Z,12.1
2019-04-10T14:51:34.777Z,12.5
2019-04-10T14:52:43.518Z,12.4
2019-04-10T14:53:53.342Z,12.3
2019-04-10T14:55:02.376Z,12.5
2019-04-10T14:56:11.685Z,12.9
2019-04-10T14:57:21.066Z,12.7
2019-04-10T14:58:33.794Z,12.9
2019-04-10T14:59:40.170Z,13
2019-04-10T15:00:49.732Z,12.9
2019-04-10T15:01:58.569Z,12.6
2019-04-10T15:03:08.604Z,10.2
2019-04-10T15:04:17.414Z,10.5
2019-04-10T15:05:28.007Z,9.3
2019-04-10T15:06:37.541Z,9.3
2019-04-10T15:07:47.009Z,10.3
2019-04-10T15:08:55.713Z,8.6
2019-04-10T15:10:05.112Z,9.2
2019-04-10T15:11:14.599Z,9
2019-04-10T15:12:24.772Z,9.1
2019-04-10T15:13:34.016Z,8.9
2019-04-10T15:14:43.784Z,9.4
2019-04-10T15:15:52.686Z,10.8
2019-04-10T15:17:07.539Z,11
2019-04-10T15:18:11.542Z,10.9
2019-04-10T15:19:20.978Z,11.6
2019-04-10T15:20:31.438Z,12.2
2019-04-10T15:21:40.418Z,12.4
2019-04-10T15:22:49.853Z,12.3
2019-04-10T15:23:59.498Z,13.2
2019-04-10T15:26:17.759Z,13.1
2019-04-10T15:27:27.210Z,12.5
2019-04-10T15:28:36.279Z,12.9
2019-04-10T15:29:45.667Z,12.8
2019-04-10T15:30:55.202Z,13.1
2019-04-10T15:32:04.796Z,12.6
2019-04-10T15:33:14.356Z,12.5
2019-04-10T15:34:23.381Z,12.9
2019-04-10T15:35:32.958Z,11.8
2019-04-10T15:36:46.013Z,11.8
2019-04-10T15:37:51.602Z,11.4
2019-04-10T15:39:00.713Z,11.7
2019-04-10T15:40:23.222Z,12.1
2019-04-10T15:41:19.389Z,12.5
2019-04-10T15:42:28.827Z,12.2
2019-04-10T15:43:38.182Z,12.9
2019-04-10T15:44:48.233Z,12.8
2019-04-10T15:45:56.960Z,13.3
2019-04-10T15:47:19.418Z,13.7
2019-04-10T15:48:16.687Z,12.3
2019-04-10T15:49:25.158Z,12.6
2019-04-10T15:50:34.766Z,12.5
2019-04-10T15:51:43.697Z,12.6
2019-04-10T15:52:53.746Z,12.7
2019-04-10T15:54:02.419Z,12.1
2019-04-10T15:55:11.809Z,11.7
2019-04-10T15:56:22.166Z,12.3
2019-04-10T15:57:52.353Z,11.9
2019-04-10T15:58:39.944Z,11.9
2019-04-10T15:59:49.323Z,11.8
2019-04-10T16:00:59.500Z,12.1
2019-04-10T16:02:07.999Z,11.8
2019-04-10T16:03:17.621Z,11.8
2019-04-10T16:04:27.582Z,11.8
2019-04-10T16:05:36.128Z,12.2
2019-04-10T16:07:55.411Z,12.4
2019-04-10T16:09:05.021Z,12.6
2019-04-10T16:10:14.838Z,12.4
2019-04-10T16:11:22.823Z,12.7
2019-04-10T16:12:33.264Z,12.5
2019-04-10T16:13:41.823Z,12.5
2019-04-10T16:14:51.058Z,12.2
2019-04-10T16:16:01.099Z,12.5